sensor_id;sensor_type;location;lat;lon;timestamp;temperature;humidity
68476;DHT22;55464;48.266;14.188;2022-11-30T00:01:18;2.40;85.70
68476;DHT22;55464;48.266;14.188;2022-11-30T00:03:45;2.50;85.60
68476;DHT22;55464;48.266;14.188;2022-11-30T00:06:13;2.50;85.70
68476;DHT22;55464;48.266;14.188;2022-11-30T00:08:39;2.50;85.70
68476;DHT22;55464;48.266;14.188;2022-11-30T00:11:10;2.50;85.60
68476;DHT22;55464;48.266;14.188;2022-11-30T00:13:35;2.50;85.30
68476;DHT22;55464;48.266;14.188;2022-11-30T00:16:01;2.50;85.60
68476;DHT22;55464;48.266;14.188;2022-11-30T00:18:27;2.40;85.70
68476;DHT22;55464;48.266;14.188;2022-11-30T00:20:53;2.40;85.60
68476;DHT22;55464;48.266;14.188;2022-11-30T00:23:19;2.40;85.70
68476;DHT22;55464;48.266;14.188;2022-11-30T00:25:45;2.40;85.70
68476;DHT22;55464;48.266;14.188;2022-11-30T00:28:11;2.30;85.80
68476;DHT22;55464;48.266;14.188;2022-11-30T00:30:36;2.40;85.80
68476;DHT22;55464;48.266;14.188;2022-11-30T00:33:02;2.40;85.50
68476;DHT22;55464;48.266;14.188;2022-11-30T00:35:28;2.40;85.60
68476;DHT22;55464;48.266;14.188;2022-11-30T00:37:53;2.30;85.60
68476;DHT22;55464;48.266;14.188;2022-11-30T00:40:19;2.30;85.70
68476;DHT22;55464;48.266;14.188;2022-11-30T00:42:45;2.30;85.60
68476;DHT22;55464;48.266;14.188;2022-11-30T00:45:10;2.40;85.60
68476;DHT22;55464;48.266;14.188;2022-11-30T00:47:36;2.40;85.50
68476;DHT22;55464;48.266;14.188;2022-11-30T00:50:03;2.40;85.60
68476;DHT22;55464;48.266;14.188;2022-11-30T00:52:29;2.30;85.70
68476;DHT22;55464;48.266;14.188;2022-11-30T00:54:55;2.30;85.70
68476;DHT22;55464;48.266;14.188;2022-11-30T00:57:20;2.30;85.70
68476;DHT22;55464;48.266;14.188;2022-11-30T00:59:46;2.30;85.50
68476;DHT22;55464;48.266;14.188;2022-11-30T01:02:12;2.30;85.60
68476;DHT22;55464;48.266;14.188;2022-11-30T01:04:38;2.30;85.60
68476;DHT22;55464;48.266;14.188;2022-11-30T01:07:04;2.30;85.70
68476;DHT22;55464;48.266;14.188;2022-11-30T01:09:29;2.30;85.60
68476;DHT22;55464;48.266;14.188;2022-11-30T01:11:55;2.30;85.60
68476;DHT22;55464;48.266;14.188;2022-11-30T01:14:21;2.30;85.60
68476;DHT22;55464;48.266;14.188;2022-11-30T01:16:46;2.30;85.70
68476;DHT22;55464;48.266;14.188;2022-11-30T01:19:12;2.30;85.90
68476;DHT22;55464;48.266;14.188;2022-11-30T01:21:38;2.30;86.00
68476;DHT22;55464;48.266;14.188;2022-11-30T01:24:04;2.30;85.90
68476;DHT22;55464;48.266;14.188;2022-11-30T01:26:30;2.30;85.90
68476;DHT22;55464;48.266;14.188;2022-11-30T01:28:56;2.30;85.90
68476;DHT22;55464;48.266;14.188;2022-11-30T01:31:23;2.40;85.60
68476;DHT22;55464;48.266;14.188;2022-11-30T01:33:50;2.40;85.70
68476;DHT22;55464;48.266;14.188;2022-11-30T01:36:22;2.40;85.60
68476;DHT22;55464;48.266;14.188;2022-11-30T01:38:50;2.40;85.50
68476;DHT22;55464;48.266;14.188;2022-11-30T01:41:23;2.40;85.60
68476;DHT22;55464;48.266;14.188;2022-11-30T01:43:50;2.40;85.70
68476;DHT22;55464;48.266;14.188;2022-11-30T01:46:20;2.50;85.40
68476;DHT22;55464;48.266;14.188;2022-11-30T01:48:55;2.40;85.40
68476;DHT22;55464;48.266;14.188;2022-11-30T01:51:27;2.40;85.60
68476;DHT22;55464;48.266;14.188;2022-11-30T01:53:53;2.40;85.50
68476;DHT22;55464;48.266;14.188;2022-11-30T01:56:19;2.40;85.50
68476;DHT22;55464;48.266;14.188;2022-11-30T01:58:45;2.40;85.60
68476;DHT22;55464;48.266;14.188;2022-11-30T02:01:11;2.30;85.40
68476;DHT22;55464;48.266;14.188;2022-11-30T02:03:51;2.30;85.50
68476;DHT22;55464;48.266;14.188;2022-11-30T02:06:18;2.30;85.40
68476;DHT22;55464;48.266;14.188;2022-11-30T02:08:43;2.30;85.30
68476;DHT22;55464;48.266;14.188;2022-11-30T02:11:13;2.30;85.20
68476;DHT22;55464;48.266;14.188;2022-11-30T02:16:26;2.20;85.10
68476;DHT22;55464;48.266;14.188;2022-11-30T02:18:59;2.20;85.40
68476;DHT22;55464;48.266;14.188;2022-11-30T02:22:09;2.20;85.00
68476;DHT22;55464;48.266;14.188;2022-11-30T02:30:19;2.10;85.50
68476;DHT22;55464;48.266;14.188;2022-11-30T02:32:57;2.20;85.30
68476;DHT22;55464;48.266;14.188;2022-11-30T02:35:28;2.10;85.40
68476;DHT22;55464;48.266;14.188;2022-11-30T02:37:55;2.10;85.50
68476;DHT22;55464;48.266;14.188;2022-11-30T02:40:22;2.10;85.70
68476;DHT22;55464;48.266;14.188;2022-11-30T02:42:50;2.10;85.70
68476;DHT22;55464;48.266;14.188;2022-11-30T02:45:25;2.10;85.80
68476;DHT22;55464;48.266;14.188;2022-11-30T02:48:06;2.10;86.00
68476;DHT22;55464;48.266;14.188;2022-11-30T02:50:43;2.20;85.80
68476;DHT22;55464;48.266;14.188;2022-11-30T02:53:10;2.20;85.80
68476;DHT22;55464;48.266;14.188;2022-11-30T02:55:36;2.20;85.90
68476;DHT22;55464;48.266;14.188;2022-11-30T02:58:01;2.20;85.90
68476;DHT22;55464;48.266;14.188;2022-11-30T03:00:27;2.20;85.90
68476;DHT22;55464;48.266;14.188;2022-11-30T03:02:53;2.20;85.90
68476;DHT22;55464;48.266;14.188;2022-11-30T03:05:19;2.20;85.90
68476;DHT22;55464;48.266;14.188;2022-11-30T03:07:45;2.20;85.80
68476;DHT22;55464;48.266;14.188;2022-11-30T03:10:10;2.20;85.80
68476;DHT22;55464;48.266;14.188;2022-11-30T03:12:36;2.20;86.00
68476;DHT22;55464;48.266;14.188;2022-11-30T03:15:03;2.20;86.00
68476;DHT22;55464;48.266;14.188;2022-11-30T03:17:28;2.20;86.10
68476;DHT22;55464;48.266;14.188;2022-11-30T03:19:54;2.30;86.00
68476;DHT22;55464;48.266;14.188;2022-11-30T03:22:20;2.30;85.90
68476;DHT22;55464;48.266;14.188;2022-11-30T03:24:45;2.30;85.80
68476;DHT22;55464;48.266;14.188;2022-11-30T03:27:12;2.30;85.60
68476;DHT22;55464;48.266;14.188;2022-11-30T03:29:37;2.30;85.60
68476;DHT22;55464;48.266;14.188;2022-11-30T03:32:04;2.30;85.50
68476;DHT22;55464;48.266;14.188;2022-11-30T03:34:29;2.30;85.60
68476;DHT22;55464;48.266;14.188;2022-11-30T03:36:55;2.30;85.60
68476;DHT22;55464;48.266;14.188;2022-11-30T03:39:21;2.30;85.60
68476;DHT22;55464;48.266;14.188;2022-11-30T03:41:49;2.30;85.70
68476;DHT22;55464;48.266;14.188;2022-11-30T03:44:15;2.30;85.80
68476;DHT22;55464;48.266;14.188;2022-11-30T03:46:41;2.40;85.70
68476;DHT22;55464;48.266;14.188;2022-11-30T03:49:06;2.30;85.90
68476;DHT22;55464;48.266;14.188;2022-11-30T03:51:32;2.30;85.80
68476;DHT22;55464;48.266;14.188;2022-11-30T03:53:58;2.30;85.70
68476;DHT22;55464;48.266;14.188;2022-11-30T03:56:24;2.30;85.70
68476;DHT22;55464;48.266;14.188;2022-11-30T03:58:50;2.30;85.80
68476;DHT22;55464;48.266;14.188;2022-11-30T04:01:18;2.30;85.80
68476;DHT22;55464;48.266;14.188;2022-11-30T04:03:47;2.30;85.80
68476;DHT22;55464;48.266;14.188;2022-11-30T04:06:13;2.40;85.80
68476;DHT22;55464;48.266;14.188;2022-11-30T04:08:39;2.30;85.80
68476;DHT22;55464;48.266;14.188;2022-11-30T04:11:05;2.40;85.80
68476;DHT22;55464;48.266;14.188;2022-11-30T04:13:33;2.40;85.70
68476;DHT22;55464;48.266;14.188;2022-11-30T04:15:59;2.30;85.70
68476;DHT22;55464;48.266;14.188;2022-11-30T04:18:27;2.30;85.90
68476;DHT22;55464;48.266;14.188;2022-11-30T04:20:55;2.30;86.00
68476;DHT22;55464;48.266;14.188;2022-11-30T04:23:22;2.30;86.00
68476;DHT22;55464;48.266;14.188;2022-11-30T04:25:48;2.20;86.00
68476;DHT22;55464;48.266;14.188;2022-11-30T04:28:15;2.20;86.10
68476;DHT22;55464;48.266;14.188;2022-11-30T04:30:42;2.10;86.20
68476;DHT22;55464;48.266;14.188;2022-11-30T04:33:08;2.10;86.30
68476;DHT22;55464;48.266;14.188;2022-11-30T04:35:41;2.10;86.30
68476;DHT22;55464;48.266;14.188;2022-11-30T04:38:08;2.10;86.20
68476;DHT22;55464;48.266;14.188;2022-11-30T04:40:33;2.10;86.30
68476;DHT22;55464;48.266;14.188;2022-11-30T04:43:03;2.10;86.20
68476;DHT22;55464;48.266;14.188;2022-11-30T04:45:29;2.10;86.20
68476;DHT22;55464;48.266;14.188;2022-11-30T04:47:54;2.10;86.30
68476;DHT22;55464;48.266;14.188;2022-11-30T04:50:20;2.10;86.20
68476;DHT22;55464;48.266;14.188;2022-11-30T04:52:47;2.10;86.30
68476;DHT22;55464;48.266;14.188;2022-11-30T04:55:12;2.10;86.30
68476;DHT22;55464;48.266;14.188;2022-11-30T04:57:38;2.10;86.20
68476;DHT22;55464;48.266;14.188;2022-11-30T05:00:05;2.10;86.10
68476;DHT22;55464;48.266;14.188;2022-11-30T05:02:31;2.00;86.20
68476;DHT22;55464;48.266;14.188;2022-11-30T05:04:56;2.10;86.20
68476;DHT22;55464;48.266;14.188;2022-11-30T05:07:22;2.10;86.10
68476;DHT22;55464;48.266;14.188;2022-11-30T05:09:48;2.00;86.00
68476;DHT22;55464;48.266;14.188;2022-11-30T05:12:13;2.00;86.20
68476;DHT22;55464;48.266;14.188;2022-11-30T05:14:39;2.00;86.40
68476;DHT22;55464;48.266;14.188;2022-11-30T05:17:04;2.00;86.50
68476;DHT22;55464;48.266;14.188;2022-11-30T05:19:30;2.00;86.70
68476;DHT22;55464;48.266;14.188;2022-11-30T05:21:56;2.00;86.80
68476;DHT22;55464;48.266;14.188;2022-11-30T05:24:21;2.10;86.80
68476;DHT22;55464;48.266;14.188;2022-11-30T05:26:47;2.10;86.80
68476;DHT22;55464;48.266;14.188;2022-11-30T05:29:13;2.10;87.00
68476;DHT22;55464;48.266;14.188;2022-11-30T05:31:39;2.10;86.80
68476;DHT22;55464;48.266;14.188;2022-11-30T05:34:05;2.10;86.90
68476;DHT22;55464;48.266;14.188;2022-11-30T05:36:31;2.10;86.80
68476;DHT22;55464;48.266;14.188;2022-11-30T05:38:56;2.20;86.70
68476;DHT22;55464;48.266;14.188;2022-11-30T05:41:22;2.20;86.70
68476;DHT22;55464;48.266;14.188;2022-11-30T05:43:48;2.20;86.70
68476;DHT22;55464;48.266;14.188;2022-11-30T05:46:13;2.30;86.60
68476;DHT22;55464;48.266;14.188;2022-11-30T05:48:39;2.30;86.60
68476;DHT22;55464;48.266;14.188;2022-11-30T05:51:14;2.30;86.60
68476;DHT22;55464;48.266;14.188;2022-11-30T05:53:41;2.30;86.70
68476;DHT22;55464;48.266;14.188;2022-11-30T05:56:10;2.30;86.70
68476;DHT22;55464;48.266;14.188;2022-11-30T05:58:36;2.20;86.70
68476;DHT22;55464;48.266;14.188;2022-11-30T06:01:03;2.20;86.80
68476;DHT22;55464;48.266;14.188;2022-11-30T06:03:29;2.20;86.90
68476;DHT22;55464;48.266;14.188;2022-11-30T06:05:55;2.30;86.80
68476;DHT22;55464;48.266;14.188;2022-11-30T06:08:21;2.30;86.80
68476;DHT22;55464;48.266;14.188;2022-11-30T06:10:47;2.20;86.80
68476;DHT22;55464;48.266;14.188;2022-11-30T06:13:13;2.30;86.90
68476;DHT22;55464;48.266;14.188;2022-11-30T06:15:39;2.30;86.80
68476;DHT22;55464;48.266;14.188;2022-11-30T06:18:06;2.30;86.80
68476;DHT22;55464;48.266;14.188;2022-11-30T06:20:32;2.40;86.80
68476;DHT22;55464;48.266;14.188;2022-11-30T06:22:58;2.40;86.90
68476;DHT22;55464;48.266;14.188;2022-11-30T06:25:25;2.30;86.70
68476;DHT22;55464;48.266;14.188;2022-11-30T06:27:51;2.40;86.80
68476;DHT22;55464;48.266;14.188;2022-11-30T06:30:17;2.40;86.80
68476;DHT22;55464;48.266;14.188;2022-11-30T06:32:44;2.30;86.80
68476;DHT22;55464;48.266;14.188;2022-11-30T06:35:10;2.30;86.70
68476;DHT22;55464;48.266;14.188;2022-11-30T06:37:36;2.30;86.80
68476;DHT22;55464;48.266;14.188;2022-11-30T06:40:02;2.30;86.90
68476;DHT22;55464;48.266;14.188;2022-11-30T06:42:29;2.30;86.90
68476;DHT22;55464;48.266;14.188;2022-11-30T06:44:54;2.30;86.80
68476;DHT22;55464;48.266;14.188;2022-11-30T06:47:20;2.30;86.70
68476;DHT22;55464;48.266;14.188;2022-11-30T06:49:46;2.30;86.90
68476;DHT22;55464;48.266;14.188;2022-11-30T06:52:11;2.30;86.90
68476;DHT22;55464;48.266;14.188;2022-11-30T06:54:37;2.30;86.90
68476;DHT22;55464;48.266;14.188;2022-11-30T06:57:03;2.40;86.70
68476;DHT22;55464;48.266;14.188;2022-11-30T06:59:28;2.40;86.40
68476;DHT22;55464;48.266;14.188;2022-11-30T07:01:54;2.40;86.40
68476;DHT22;55464;48.266;14.188;2022-11-30T07:04:20;2.40;86.30
68476;DHT22;55464;48.266;14.188;2022-11-30T07:06:46;2.50;86.10
68476;DHT22;55464;48.266;14.188;2022-11-30T07:09:11;2.40;86.00
68476;DHT22;55464;48.266;14.188;2022-11-30T07:11:38;2.40;86.00
68476;DHT22;55464;48.266;14.188;2022-11-30T07:14:04;2.50;86.10
68476;DHT22;55464;48.266;14.188;2022-11-30T07:16:29;2.50;86.00
68476;DHT22;55464;48.266;14.188;2022-11-30T07:18:55;2.50;86.00
68476;DHT22;55464;48.266;14.188;2022-11-30T07:21:21;2.50;85.90
68476;DHT22;55464;48.266;14.188;2022-11-30T07:23:47;2.50;85.90
68476;DHT22;55464;48.266;14.188;2022-11-30T07:26:32;2.60;85.80
68476;DHT22;55464;48.266;14.188;2022-11-30T07:28:57;2.60;85.80
68476;DHT22;55464;48.266;14.188;2022-11-30T07:31:28;2.60;85.70
68476;DHT22;55464;48.266;14.188;2022-11-30T07:33:55;2.60;85.70
68476;DHT22;55464;48.266;14.188;2022-11-30T07:36:22;2.60;85.80
68476;DHT22;55464;48.266;14.188;2022-11-30T07:38:48;2.60;85.80
68476;DHT22;55464;48.266;14.188;2022-11-30T07:41:14;2.60;85.80
68476;DHT22;55464;48.266;14.188;2022-11-30T07:43:39;2.70;85.70
68476;DHT22;55464;48.266;14.188;2022-11-30T07:46:05;2.70;85.80
68476;DHT22;55464;48.266;14.188;2022-11-30T07:48:31;2.70;85.70
68476;DHT22;55464;48.266;14.188;2022-11-30T07:51:06;2.70;85.80
68476;DHT22;55464;48.266;14.188;2022-11-30T07:53:32;2.70;85.60
68476;DHT22;55464;48.266;14.188;2022-11-30T07:56:03;2.70;85.50
68476;DHT22;55464;48.266;14.188;2022-11-30T07:58:29;2.70;85.50
68476;DHT22;55464;48.266;14.188;2022-11-30T08:01:03;2.70;85.40
68476;DHT22;55464;48.266;14.188;2022-11-30T08:03:29;2.70;85.30
68476;DHT22;55464;48.266;14.188;2022-11-30T08:06:03;2.70;85.40
68476;DHT22;55464;48.266;14.188;2022-11-30T08:08:34;2.70;85.40
68476;DHT22;55464;48.266;14.188;2022-11-30T08:11:00;2.70;85.40
68476;DHT22;55464;48.266;14.188;2022-11-30T08:13:27;2.70;85.40
68476;DHT22;55464;48.266;14.188;2022-11-30T08:15:53;2.70;85.40
68476;DHT22;55464;48.266;14.188;2022-11-30T08:18:19;2.60;85.20
68476;DHT22;55464;48.266;14.188;2022-11-30T08:20:45;2.60;85.20
68476;DHT22;55464;48.266;14.188;2022-11-30T08:23:11;2.60;85.00
68476;DHT22;55464;48.266;14.188;2022-11-30T08:25:37;2.60;85.30
68476;DHT22;55464;48.266;14.188;2022-11-30T08:28:04;2.60;85.10
68476;DHT22;55464;48.266;14.188;2022-11-30T08:30:30;2.60;85.20
68476;DHT22;55464;48.266;14.188;2022-11-30T08:32:56;2.60;85.30
68476;DHT22;55464;48.266;14.188;2022-11-30T08:35:22;2.60;85.60
68476;DHT22;55464;48.266;14.188;2022-11-30T08:37:47;2.70;85.50
68476;DHT22;55464;48.266;14.188;2022-11-30T08:40:13;2.60;85.30
68476;DHT22;55464;48.266;14.188;2022-11-30T08:42:39;2.60;85.40
68476;DHT22;55464;48.266;14.188;2022-11-30T08:45:05;2.70;85.50
68476;DHT22;55464;48.266;14.188;2022-11-30T08:47:31;2.70;85.50
68476;DHT22;55464;48.266;14.188;2022-11-30T08:49:57;2.70;85.50
68476;DHT22;55464;48.266;14.188;2022-11-30T08:52:23;2.70;85.30
68476;DHT22;55464;48.266;14.188;2022-11-30T08:54:49;2.80;85.10
68476;DHT22;55464;48.266;14.188;2022-11-30T08:57:16;2.80;85.00
68476;DHT22;55464;48.266;14.188;2022-11-30T08:59:42;2.80;84.80
68476;DHT22;55464;48.266;14.188;2022-11-30T09:02:13;2.80;85.00
68476;DHT22;55464;48.266;14.188;2022-11-30T09:04:41;2.80;84.80
68476;DHT22;55464;48.266;14.188;2022-11-30T09:07:07;2.80;84.70
68476;DHT22;55464;48.266;14.188;2022-11-30T09:09:34;2.80;84.90
68476;DHT22;55464;48.266;14.188;2022-11-30T09:12:00;2.80;84.80
68476;DHT22;55464;48.266;14.188;2022-11-30T09:14:26;2.80;84.80
68476;DHT22;55464;48.266;14.188;2022-11-30T09:16:52;2.80;84.90
68476;DHT22;55464;48.266;14.188;2022-11-30T09:19:18;2.90;84.80
68476;DHT22;55464;48.266;14.188;2022-11-30T09:21:44;2.90;84.70
68476;DHT22;55464;48.266;14.188;2022-11-30T09:24:10;2.90;84.90
68476;DHT22;55464;48.266;14.188;2022-11-30T09:26:35;2.90;84.50
68476;DHT22;55464;48.266;14.188;2022-11-30T09:29:01;2.90;84.30
68476;DHT22;55464;48.266;14.188;2022-11-30T09:31:27;2.90;84.40
68476;DHT22;55464;48.266;14.188;2022-11-30T09:33:55;2.90;84.40
68476;DHT22;55464;48.266;14.188;2022-11-30T09:36:22;2.90;84.20
68476;DHT22;55464;48.266;14.188;2022-11-30T09:38:48;2.90;84.20
68476;DHT22;55464;48.266;14.188;2022-11-30T09:44:31;2.90;83.90
68476;DHT22;55464;48.266;14.188;2022-11-30T09:49:47;2.90;84.30
68476;DHT22;55464;48.266;14.188;2022-11-30T09:52:22;2.90;84.30
68476;DHT22;55464;48.266;14.188;2022-11-30T09:54:50;2.90;84.50
68476;DHT22;55464;48.266;14.188;2022-11-30T10:00:18;2.90;84.90
68476;DHT22;55464;48.266;14.188;2022-11-30T10:02:56;2.90;84.80
68476;DHT22;55464;48.266;14.188;2022-11-30T10:05:36;3.00;84.90
68476;DHT22;55464;48.266;14.188;2022-11-30T10:08:35;3.00;84.60
68476;DHT22;55464;48.266;14.188;2022-11-30T10:13:41;3.00;84.30
68476;DHT22;55464;48.266;14.188;2022-11-30T10:16:34;3.00;84.60
68476;DHT22;55464;48.266;14.188;2022-11-30T10:24:46;3.10;84.50
68476;DHT22;55464;48.266;14.188;2022-11-30T10:30:13;3.10;84.30
68476;DHT22;55464;48.266;14.188;2022-11-30T10:32:40;3.10;84.50
68476;DHT22;55464;48.266;14.188;2022-11-30T10:35:22;3.10;84.20
68476;DHT22;55464;48.266;14.188;2022-11-30T10:37:50;3.10;84.00
68476;DHT22;55464;48.266;14.188;2022-11-30T10:40:25;3.10;84.10
68476;DHT22;55464;48.266;14.188;2022-11-30T10:43:21;3.10;84.20
68476;DHT22;55464;48.266;14.188;2022-11-30T10:45:49;3.10;83.80
68476;DHT22;55464;48.266;14.188;2022-11-30T10:48:39;3.10;84.00
68476;DHT22;55464;48.266;14.188;2022-11-30T10:51:05;3.00;84.20
68476;DHT22;55464;48.266;14.188;2022-11-30T10:53:32;3.00;84.30
68476;DHT22;55464;48.266;14.188;2022-11-30T10:58:38;3.10;84.40
68476;DHT22;55464;48.266;14.188;2022-11-30T11:04:19;3.10;83.70
68476;DHT22;55464;48.266;14.188;2022-11-30T11:11:59;3.20;84.00
68476;DHT22;55464;48.266;14.188;2022-11-30T11:14:26;3.20;83.80
68476;DHT22;55464;48.266;14.188;2022-11-30T11:19:48;3.20;83.70
68476;DHT22;55464;48.266;14.188;2022-11-30T11:22:24;3.20;83.90
68476;DHT22;55464;48.266;14.188;2022-11-30T11:24:53;3.20;83.90
68476;DHT22;55464;48.266;14.188;2022-11-30T11:27:27;3.20;84.00
68476;DHT22;55464;48.266;14.188;2022-11-30T11:30:14;3.30;84.00
68476;DHT22;55464;48.266;14.188;2022-11-30T11:33:00;3.30;83.90
68476;DHT22;55464;48.266;14.188;2022-11-30T11:37:59;3.30;83.70
68476;DHT22;55464;48.266;14.188;2022-11-30T11:40:24;3.30;83.70
68476;DHT22;55464;48.266;14.188;2022-11-30T11:42:52;3.30;83.70
68476;DHT22;55464;48.266;14.188;2022-11-30T11:45:27;3.30;83.40
68476;DHT22;55464;48.266;14.188;2022-11-30T11:48:01;3.30;83.80
68476;DHT22;55464;48.266;14.188;2022-11-30T11:50:30;3.40;84.00
68476;DHT22;55464;48.266;14.188;2022-11-30T11:55:41;3.50;83.50
68476;DHT22;55464;48.266;14.188;2022-11-30T11:58:15;3.50;83.60
68476;DHT22;55464;48.266;14.188;2022-11-30T12:00:42;3.50;83.70
68476;DHT22;55464;48.266;14.188;2022-11-30T12:03:36;3.60;83.90
68476;DHT22;55464;48.266;14.188;2022-11-30T12:06:08;3.60;83.20
68476;DHT22;55464;48.266;14.188;2022-11-30T12:08:45;3.80;83.00
68476;DHT22;55464;48.266;14.188;2022-11-30T12:13:47;4.30;82.10
68476;DHT22;55464;48.266;14.188;2022-11-30T12:27:02;3.80;82.00
68476;DHT22;55464;48.266;14.188;2022-11-30T12:38:16;3.60;82.90
68476;DHT22;55464;48.266;14.188;2022-11-30T12:55:22;3.60;83.60
68476;DHT22;55464;48.266;14.188;2022-11-30T13:03:34;3.50;83.30
68476;DHT22;55464;48.266;14.188;2022-11-30T13:06:08;3.60;83.90
68476;DHT22;55464;48.266;14.188;2022-11-30T13:11:14;3.70;84.20
68476;DHT22;55464;48.266;14.188;2022-11-30T13:13:51;3.70;84.10
68476;DHT22;55464;48.266;14.188;2022-11-30T13:16:19;3.70;84.30
68476;DHT22;55464;48.266;14.188;2022-11-30T13:18:47;3.70;84.30
68476;DHT22;55464;48.266;14.188;2022-11-30T13:21:31;3.60;84.00
68476;DHT22;55464;48.266;14.188;2022-11-30T13:24:15;3.60;84.30
68476;DHT22;55464;48.266;14.188;2022-11-30T13:26:56;3.70;84.60
68476;DHT22;55464;48.266;14.188;2022-11-30T13:32:12;3.70;84.60
68476;DHT22;55464;48.266;14.188;2022-11-30T13:34:38;3.80;84.60
68476;DHT22;55464;48.266;14.188;2022-11-30T13:37:11;3.80;84.50
68476;DHT22;55464;48.266;14.188;2022-11-30T13:39:43;3.80;84.60
68476;DHT22;55464;48.266;14.188;2022-11-30T13:42:32;3.80;84.60
68476;DHT22;55464;48.266;14.188;2022-11-30T13:45:25;3.90;84.30
68476;DHT22;55464;48.266;14.188;2022-11-30T13:47:55;3.80;84.30
68476;DHT22;55464;48.266;14.188;2022-11-30T13:50:38;3.80;84.20
68476;DHT22;55464;48.266;14.188;2022-11-30T13:53:28;3.80;84.40
68476;DHT22;55464;48.266;14.188;2022-11-30T13:56:05;3.70;84.80
68476;DHT22;55464;48.266;14.188;2022-11-30T13:58:33;3.70;84.50
68476;DHT22;55464;48.266;14.188;2022-11-30T14:01:28;3.70;84.80
68476;DHT22;55464;48.266;14.188;2022-11-30T14:06:43;3.60;85.20
68476;DHT22;55464;48.266;14.188;2022-11-30T14:14:58;3.70;84.70
68476;DHT22;55464;48.266;14.188;2022-11-30T14:17:33;3.70;84.60
68476;DHT22;55464;48.266;14.188;2022-11-30T14:20:13;3.60;84.90
68476;DHT22;55464;48.266;14.188;2022-11-30T14:22:40;3.60;84.80
68476;DHT22;55464;48.266;14.188;2022-11-30T14:25:12;3.60;84.80
68476;DHT22;55464;48.266;14.188;2022-11-30T14:27:39;3.70;84.60
68476;DHT22;55464;48.266;14.188;2022-11-30T14:30:05;3.60;84.80
68476;DHT22;55464;48.266;14.188;2022-11-30T14:32:43;3.60;84.70
68476;DHT22;55464;48.266;14.188;2022-11-30T14:35:17;3.60;84.90
68476;DHT22;55464;48.266;14.188;2022-11-30T14:38:01;3.60;84.90
68476;DHT22;55464;48.266;14.188;2022-11-30T14:40:29;3.60;84.70
68476;DHT22;55464;48.266;14.188;2022-11-30T14:42:59;3.60;84.70
68476;DHT22;55464;48.266;14.188;2022-11-30T14:48:10;3.60;84.70
68476;DHT22;55464;48.266;14.188;2022-11-30T14:50:45;3.60;84.90
68476;DHT22;55464;48.266;14.188;2022-11-30T14:55:45;3.60;85.00
68476;DHT22;55464;48.266;14.188;2022-11-30T15:00:41;3.50;84.60
68476;DHT22;55464;48.266;14.188;2022-11-30T15:03:24;3.50;84.60
68476;DHT22;55464;48.266;14.188;2022-11-30T15:05:54;3.50;84.60
68476;DHT22;55464;48.266;14.188;2022-11-30T15:08:20;3.40;84.60
68476;DHT22;55464;48.266;14.188;2022-11-30T15:10:47;3.30;84.60
68476;DHT22;55464;48.266;14.188;2022-11-30T15:13:14;3.30;84.80
68476;DHT22;55464;48.266;14.188;2022-11-30T15:15:53;3.30;85.00
68476;DHT22;55464;48.266;14.188;2022-11-30T15:18:21;3.40;85.00
68476;DHT22;55464;48.266;14.188;2022-11-30T15:21:00;3.30;85.10
68476;DHT22;55464;48.266;14.188;2022-11-30T15:23:26;3.30;85.20
68476;DHT22;55464;48.266;14.188;2022-11-30T15:25:59;3.30;85.20
68476;DHT22;55464;48.266;14.188;2022-11-30T15:28:33;3.30;85.30
68476;DHT22;55464;48.266;14.188;2022-11-30T15:31:04;3.30;85.20
68476;DHT22;55464;48.266;14.188;2022-11-30T15:33:39;3.30;85.10
68476;DHT22;55464;48.266;14.188;2022-11-30T15:36:05;3.30;85.00
68476;DHT22;55464;48.266;14.188;2022-11-30T15:38:31;3.30;85.00
68476;DHT22;55464;48.266;14.188;2022-11-30T15:41:05;3.30;85.10
68476;DHT22;55464;48.266;14.188;2022-11-30T15:43:36;3.20;85.20
68476;DHT22;55464;48.266;14.188;2022-11-30T15:46:04;3.30;85.50
68476;DHT22;55464;48.266;14.188;2022-11-30T15:48:39;3.30;85.50
68476;DHT22;55464;48.266;14.188;2022-11-30T15:51:05;3.30;85.50
68476;DHT22;55464;48.266;14.188;2022-11-30T15:53:47;3.30;85.40
68476;DHT22;55464;48.266;14.188;2022-11-30T15:56:25;3.30;85.50
68476;DHT22;55464;48.266;14.188;2022-11-30T15:59:21;3.20;85.20
68476;DHT22;55464;48.266;14.188;2022-11-30T16:01:55;3.30;85.40
68476;DHT22;55464;48.266;14.188;2022-11-30T16:07:22;3.20;85.60
68476;DHT22;55464;48.266;14.188;2022-11-30T16:09:48;3.20;85.70
68476;DHT22;55464;48.266;14.188;2022-11-30T16:12:26;3.20;85.60
68476;DHT22;55464;48.266;14.188;2022-11-30T16:14:54;3.20;85.70
68476;DHT22;55464;48.266;14.188;2022-11-30T16:17:20;3.20;85.60
68476;DHT22;55464;48.266;14.188;2022-11-30T16:19:46;3.30;85.70
68476;DHT22;55464;48.266;14.188;2022-11-30T16:22:12;3.20;85.70
68476;DHT22;55464;48.266;14.188;2022-11-30T16:24:39;3.30;85.60
68476;DHT22;55464;48.266;14.188;2022-11-30T16:27:16;3.30;85.50
68476;DHT22;55464;48.266;14.188;2022-11-30T16:29:42;3.20;85.20
68476;DHT22;55464;48.266;14.188;2022-11-30T16:32:12;3.30;84.70
68476;DHT22;55464;48.266;14.188;2022-11-30T16:34:39;3.30;84.80
68476;DHT22;55464;48.266;14.188;2022-11-30T16:37:04;3.20;84.80
68476;DHT22;55464;48.266;14.188;2022-11-30T16:39:31;3.20;84.80
68476;DHT22;55464;48.266;14.188;2022-11-30T16:41:57;3.30;84.90
68476;DHT22;55464;48.266;14.188;2022-11-30T16:44:34;3.20;85.00
68476;DHT22;55464;48.266;14.188;2022-11-30T16:47:00;3.20;85.20
68476;DHT22;55464;48.266;14.188;2022-11-30T16:49:26;3.20;85.10
68476;DHT22;55464;48.266;14.188;2022-11-30T16:51:51;3.30;85.10
68476;DHT22;55464;48.266;14.188;2022-11-30T16:54:17;3.20;85.00
68476;DHT22;55464;48.266;14.188;2022-11-30T16:56:43;3.20;84.80
68476;DHT22;55464;48.266;14.188;2022-11-30T16:59:09;3.10;84.90
68476;DHT22;55464;48.266;14.188;2022-11-30T17:01:42;3.10;84.90
68476;DHT22;55464;48.266;14.188;2022-11-30T17:04:24;3.20;84.70
68476;DHT22;55464;48.266;14.188;2022-11-30T17:06:54;3.10;85.00
68476;DHT22;55464;48.266;14.188;2022-11-30T17:09:20;3.10;85.20
68476;DHT22;55464;48.266;14.188;2022-11-30T17:11:47;3.10;85.40
68476;DHT22;55464;48.266;14.188;2022-11-30T17:14:15;3.10;85.40
68476;DHT22;55464;48.266;14.188;2022-11-30T17:16:41;3.10;85.50
68476;DHT22;55464;48.266;14.188;2022-11-30T17:19:08;3.10;85.40
68476;DHT22;55464;48.266;14.188;2022-11-30T17:21:36;3.00;85.60
68476;DHT22;55464;48.266;14.188;2022-11-30T17:24:03;3.00;85.70
68476;DHT22;55464;48.266;14.188;2022-11-30T17:26:29;3.00;85.70
68476;DHT22;55464;48.266;14.188;2022-11-30T17:28:55;3.00;85.80
68476;DHT22;55464;48.266;14.188;2022-11-30T17:31:21;3.10;85.80
68476;DHT22;55464;48.266;14.188;2022-11-30T17:33:47;3.10;85.60
68476;DHT22;55464;48.266;14.188;2022-11-30T17:36:15;3.10;85.70